createdAt,value
2023-05-07T00:00:17.084Z,71.73
2023-05-07T00:02:43.785Z,71.90
2023-05-07T00:05:10.529Z,72.40
2023-05-07T00:07:37.332Z,72.79
2023-05-07T00:10:05.262Z,72.62
2023-05-07T00:12:34.488Z,72.69
2023-05-07T00:15:03.817Z,72.36
2023-05-07T00:17:30.831Z,72.50
2023-05-07T00:19:57.573Z,72.83
2023-05-07T00:22:23.967Z,72.78
2023-05-07T00:24:50.356Z,73.25
2023-05-07T00:27:17.039Z,73.03
2023-05-07T00:29:43.542Z,73.66
2023-05-07T00:32:10.084Z,73.27
2023-05-07T00:34:36.733Z,73.08
2023-05-07T00:37:05.322Z,73.36
2023-05-07T00:39:32.940Z,73.18
2023-05-07T00:41:59.836Z,73.57
2023-05-07T00:44:26.239Z,73.98
2023-05-07T00:46:53.189Z,74.25
2023-05-07T00:49:20.505Z,74.54
2023-05-07T00:51:47.874Z,74.10
2023-05-07T00:54:14.436Z,73.89
2023-05-07T00:56:41.404Z,73.97
2023-05-07T00:59:07.914Z,73.95
2023-05-07T01:01:34.645Z,74.67
2023-05-07T01:04:01.145Z,74.56
2023-05-07T01:06:30.555Z,74.38
2023-05-07T01:08:58.434Z,74.31
2023-05-07T01:11:26.893Z,74.10
2023-05-07T01:13:53.824Z,74.16
2023-05-07T01:16:20.329Z,74.15
2023-05-07T01:18:49.152Z,74.19
2023-05-07T01:21:18.518Z,74.24
2023-05-07T01:23:47.118Z,74.45
2023-05-07T01:26:13.514Z,74.99
2023-05-07T01:28:40.424Z,75.04
2023-05-07T01:31:07.732Z,75.14
2023-05-07T01:33:37.585Z,75.68
2023-05-07T01:36:07.192Z,75.55
2023-05-07T01:38:34.288Z,75.50
2023-05-07T01:41:01.081Z,75.96
2023-05-07T01:43:27.682Z,75.64
2023-05-07T01:45:54.628Z,75.35
2023-05-07T01:48:21.728Z,75.43
2023-05-07T01:50:49.257Z,75.18
2023-05-07T01:53:16.054Z,75.19
2023-05-07T01:55:42.536Z,75.85
2023-05-07T01:58:09.208Z,75.95
2023-05-07T02:00:35.613Z,75.44
2023-05-07T02:03:02.123Z,75.94
2023-05-07T02:05:28.575Z,76.35
2023-05-07T02:07:55.076Z,76.43
2023-05-07T02:10:21.797Z,76.61
2023-05-07T02:12:48.542Z,76.49
2023-05-07T02:15:15.245Z,76.48
2023-05-07T02:18:00.993Z,77.40
2023-05-07T02:20:27.587Z,77.43
2023-05-07T02:22:53.982Z,77.84
2023-05-07T02:25:20.467Z,78.20
2023-05-07T02:27:46.883Z,78.79
2023-05-07T02:30:13.626Z,79.23
2023-05-07T02:32:40.088Z,79.44
2023-05-07T02:35:06.822Z,79.35
2023-05-07T02:37:33.190Z,79.68
2023-05-07T02:39:59.912Z,80.47
2023-05-07T02:42:26.263Z,80.50
2023-05-07T02:44:52.717Z,79.71
2023-05-07T02:47:19.253Z,79.10
2023-05-07T02:49:45.736Z,79.24
2023-05-07T02:52:12.093Z,79.52
2023-05-07T02:54:38.812Z,79.28
2023-05-07T02:57:05.214Z,79.22
2023-05-07T02:59:31.934Z,79.29
2023-05-07T03:01:58.590Z,79.46
2023-05-07T03:04:25.022Z,79.78
2023-05-07T03:06:51.416Z,80.73
2023-05-07T03:09:17.798Z,80.59
2023-05-07T03:11:44.345Z,81.44
2023-05-07T03:14:10.809Z,81.13
2023-05-07T03:16:37.200Z,81.07
2023-05-07T03:19:03.612Z,80.81
2023-05-07T03:21:31.670Z,80.97
2023-05-07T03:23:58.063Z,81.30
2023-05-07T03:26:24.455Z,81.47
2023-05-07T03:28:50.933Z,82.09
2023-05-07T03:31:17.622Z,82.14
2023-05-07T03:33:57.894Z,82.33
2023-05-07T03:36:24.660Z,82.20
2023-05-07T03:38:51.439Z,81.97
2023-05-07T03:41:18.190Z,81.36
2023-05-07T03:43:44.570Z,81.65
2023-05-07T03:46:11.911Z,81.96
2023-05-07T03:48:38.718Z,81.56
2023-05-07T03:51:05.146Z,82.30
2023-05-07T03:53:31.568Z,83.41
2023-05-07T03:55:58.152Z,83.65
2023-05-07T03:58:24.674Z,83.00
2023-05-07T04:00:51.485Z,82.27
2023-05-07T04:03:18.561Z,81.80
2023-05-07T04:05:45.370Z,82.02
2023-05-07T04:08:11.946Z,81.73
2023-05-07T04:10:38.501Z,81.47
2023-05-07T04:13:05.376Z,82.06
2023-05-07T04:15:31.797Z,82.00
2023-05-07T04:17:58.741Z,82.00
2023-05-07T04:20:25.134Z,82.13
2023-05-07T04:22:51.508Z,81.65
2023-05-07T04:25:17.962Z,81.55
2023-05-07T04:27:44.517Z,81.43
2023-05-07T04:30:11.699Z,81.36
2023-05-07T04:32:38.443Z,81.57
2023-05-07T04:35:05.395Z,81.75
2023-05-07T04:37:33.373Z,82.01
2023-05-07T04:39:59.815Z,81.88
2023-05-07T04:42:26.185Z,82.19
2023-05-07T04:44:54.576Z,82.73
2023-05-07T04:47:21.044Z,82.56
2023-05-07T04:49:47.671Z,82.45
2023-05-07T04:52:14.083Z,81.97
2023-05-07T04:54:40.462Z,81.82
2023-05-07T04:57:07.313Z,81.87
2023-05-07T04:59:34.315Z,81.79
2023-05-07T05:02:01.021Z,82.14
2023-05-07T05:04:27.496Z,81.89
2023-05-07T05:06:54.006Z,81.45
2023-05-07T05:09:20.432Z,80.84
2023-05-07T05:11:46.891Z,79.19
2023-05-07T05:14:13.639Z,78.83
2023-05-07T05:16:40.058Z,78.66
2023-05-07T05:19:06.543Z,79.95
2023-05-07T05:21:33.108Z,79.92
2023-05-07T05:23:59.616Z,79.69
2023-05-07T05:26:26.732Z,79.50
2023-05-07T05:28:53.137Z,80.63
2023-05-07T05:31:19.601Z,81.22
2023-05-07T05:33:46.538Z,82.39
2023-05-07T05:36:14.135Z,82.37
2023-05-07T05:38:41.241Z,82.05
2023-05-07T05:41:07.777Z,82.18
2023-05-07T05:43:34.260Z,81.35
2023-05-07T05:46:01.725Z,81.34
2023-05-07T05:48:29.928Z,79.86
2023-05-07T05:50:56.316Z,78.91
2023-05-07T05:53:22.862Z,79.21
2023-05-07T05:55:49.475Z,77.90
2023-05-07T05:58:16.290Z,78.33
2023-05-07T06:00:42.943Z,76.24
2023-05-07T06:03:09.718Z,75.35
2023-05-07T06:05:36.147Z,75.84
2023-05-07T06:08:02.639Z,76.46
2023-05-07T06:10:29.187Z,76.61
2023-05-07T06:12:55.674Z,74.69
2023-05-07T06:15:22.113Z,73.71
2023-05-07T06:17:48.603Z,73.92
2023-05-07T06:20:15.094Z,74.21
2023-05-07T06:22:41.457Z,72.61
2023-05-07T06:25:08.325Z,72.31
2023-05-07T06:27:34.692Z,71.07
2023-05-07T06:30:01.363Z,71.90
2023-05-07T06:32:27.760Z,71.79
2023-05-07T06:34:54.541Z,70.62
2023-05-07T06:37:21.254Z,69.55
2023-05-07T06:39:47.632Z,69.15
2023-05-07T06:42:14.128Z,68.43
2023-05-07T06:44:40.503Z,68.00
2023-05-07T06:47:07.172Z,67.25
2023-05-07T06:49:34.197Z,67.44
2023-05-07T06:52:00.695Z,67.40
2023-05-07T06:54:27.072Z,66.78
2023-05-07T06:56:53.507Z,67.30
2023-05-07T06:59:20.353Z,68.71
2023-05-07T07:01:46.936Z,68.36
2023-05-07T07:04:13.494Z,68.90
2023-05-07T07:06:40.014Z,69.94
2023-05-07T07:09:06.442Z,69.42
2023-05-07T07:11:32.799Z,69.53
2023-05-07T07:13:59.953Z,69.92
2023-05-07T07:16:26.777Z,69.07
2023-05-07T07:18:53.166Z,68.31
2023-05-07T07:21:19.855Z,68.48
2023-05-07T07:23:46.219Z,68.19
2023-05-07T07:26:12.623Z,68.28
2023-05-07T07:28:45.834Z,68.53
2023-05-07T07:31:12.714Z,68.95
2023-05-07T07:33:39.323Z,69.05
2023-05-07T07:36:07.648Z,68.86
2023-05-07T07:38:34.709Z,68.29
2023-05-07T07:41:02.089Z,68.76
2023-05-07T07:43:28.724Z,68.13
2023-05-07T07:45:55.108Z,67.75
2023-05-07T07:48:21.489Z,67.72
2023-05-07T07:50:51.078Z,66.31
2023-05-07T07:53:18.129Z,66.00
2023-05-07T07:55:44.883Z,65.40
2023-05-07T07:58:11.368Z,63.75
2023-05-07T08:00:37.808Z,63.71
2023-05-07T08:03:04.437Z,64.46
2023-05-07T08:05:31.188Z,64.23
2023-05-07T08:07:57.598Z,64.90
2023-05-07T08:10:24.056Z,65.08
2023-05-07T08:12:51.231Z,65.04
2023-05-07T08:15:18.181Z,64.35
2023-05-07T08:17:44.687Z,64.91
2023-05-07T08:20:11.553Z,64.45
2023-05-07T08:22:38.344Z,63.89
2023-05-07T08:25:05.250Z,64.55
2023-05-07T08:27:31.847Z,63.85
2023-05-07T08:29:58.241Z,63.47
2023-05-07T08:32:24.729Z,63.16
2023-05-07T08:34:51.327Z,63.54
2023-05-07T08:37:17.760Z,63.65
2023-05-07T08:39:44.131Z,63.86
2023-05-07T08:42:11.820Z,63.91
2023-05-07T08:44:40.569Z,63.98
2023-05-07T08:47:08.513Z,63.90
2023-05-07T08:49:35.984Z,63.95
2023-05-07T08:52:02.812Z,62.91
2023-05-07T08:54:30.315Z,62.54
2023-05-07T08:56:56.717Z,63.38
2023-05-07T08:59:23.280Z,62.76
2023-05-07T09:01:49.896Z,62.62
2023-05-07T09:04:16.924Z,62.37
2023-05-07T09:06:43.454Z,62.40
2023-05-07T09:09:09.945Z,62.01
2023-05-07T09:11:36.538Z,62.10
2023-05-07T09:14:03.694Z,62.39
2023-05-07T09:16:31.315Z,61.57
2023-05-07T09:18:59.940Z,60.75
2023-05-07T09:21:26.786Z,61.14
2023-05-07T09:23:54.788Z,61.08
2023-05-07T09:26:25.546Z,61.84
2023-05-07T09:28:52.505Z,61.71
2023-05-07T09:31:21.091Z,61.74
2023-05-07T09:33:48.072Z,62.16
2023-05-07T09:36:14.863Z,61.63
2023-05-07T09:38:41.345Z,61.73
2023-05-07T09:41:12.666Z,61.06
2023-05-07T09:43:40.502Z,61.04
2023-05-07T09:46:17.835Z,60.25
2023-05-07T09:48:45.473Z,60.55
2023-05-07T09:51:22.505Z,60.15
2023-05-07T09:53:49.496Z,59.75
2023-05-07T09:56:17.109Z,60.27
2023-05-07T09:58:44.693Z,60.58
2023-05-07T10:01:13.262Z,60.84
2023-05-07T10:03:44.498Z,60.06
2023-05-07T10:06:11.673Z,61.23
2023-05-07T10:08:38.737Z,60.35
2023-05-07T10:11:06.717Z,60.72
2023-05-07T10:13:36.689Z,60.66
2023-05-07T10:16:05.285Z,60.20
2023-05-07T10:18:35.172Z,61.38
2023-05-07T10:21:09.332Z,60.51
2023-05-07T10:23:36.512Z,60.95
2023-05-07T10:26:05.285Z,61.69
2023-05-07T10:28:35.811Z,62.23
2023-05-07T10:31:23.976Z,61.87
2023-05-07T10:33:52.396Z,61.98
2023-05-07T10:36:19.664Z,62.32
2023-05-07T10:38:47.216Z,61.61
2023-05-07T10:41:13.751Z,61.19
2023-05-07T10:43:42.444Z,62.23
2023-05-07T10:46:15.971Z,62.18
2023-05-07T10:49:01.633Z,61.78
2023-05-07T10:51:29.041Z,61.43
2023-05-07T10:54:16.737Z,60.80
2023-05-07T10:56:44.168Z,61.68
2023-05-07T10:59:28.210Z,60.57
2023-05-07T11:01:59.448Z,59.94
2023-05-07T11:04:30.828Z,59.53
2023-05-07T11:07:09.580Z,59.15
2023-05-07T11:09:54.572Z,58.17
2023-05-07T11:12:39.758Z,56.57
2023-05-07T11:15:07.497Z,58.26
2023-05-07T11:17:37.394Z,57.83
2023-05-07T11:20:05.620Z,58.21
2023-05-07T11:22:32.462Z,57.57
2023-05-07T11:25:01.026Z,57.30
2023-05-07T11:27:28.025Z,55.95
2023-05-07T11:29:54.443Z,57.13
2023-05-07T11:32:39.353Z,56.98
2023-05-07T11:35:06.972Z,57.32
2023-05-07T11:37:33.481Z,56.41
2023-05-07T11:40:22.886Z,54.33
2023-05-07T11:45:26.093Z,53.27
2023-05-07T11:47:52.650Z,53.17
2023-05-07T11:50:19.200Z,55.84
2023-05-07T11:52:53.461Z,56.59
2023-05-07T11:55:20.179Z,56.88
2023-05-07T11:57:46.578Z,56.32
2023-05-07T12:00:16.578Z,55.57
2023-05-07T12:02:43.690Z,56.70
2023-05-07T12:05:11.032Z,56.31
2023-05-07T12:07:37.864Z,55.72
2023-05-07T12:10:07.843Z,56.12
2023-05-07T12:12:47.404Z,56.31
2023-05-07T12:15:17.330Z,55.21
2023-05-07T12:17:44.437Z,55.21
2023-05-07T12:20:11.397Z,54.41
2023-05-07T12:22:37.972Z,54.74
2023-05-07T12:25:04.742Z,54.65
2023-05-07T12:27:31.612Z,54.25
2023-05-07T12:29:59.319Z,53.56
2023-05-07T12:32:25.827Z,53.47
2023-05-07T12:34:52.758Z,53.72
2023-05-07T12:37:24.420Z,54.14
2023-05-07T12:40:09.831Z,53.28
2023-05-07T12:42:38.017Z,53.03
2023-05-07T12:45:17.034Z,53.31
2023-05-07T12:47:48.072Z,53.57
2023-05-07T12:50:15.621Z,53.20
2023-05-07T12:52:42.113Z,52.88
2023-05-07T12:55:09.780Z,52.48
2023-05-07T12:57:41.525Z,52.39
2023-05-07T13:00:08.481Z,52.49
2023-05-07T13:02:35.866Z,52.26
2023-05-07T13:05:02.332Z,52.96
2023-05-07T13:07:30.629Z,52.98
2023-05-07T13:09:57.275Z,52.88
2023-05-07T13:12:23.896Z,52.62
2023-05-07T13:14:50.297Z,52.31
2023-05-07T13:17:17.021Z,51.76
2023-05-07T13:19:43.419Z,51.33
2023-05-07T13:22:09.880Z,51.62
2023-05-07T13:24:36.332Z,51.28
2023-05-07T13:27:02.749Z,51.66
2023-05-07T13:29:32.940Z,50.92
2023-05-07T13:32:00.289Z,50.69
2023-05-07T13:34:26.693Z,50.41
2023-05-07T13:36:53.418Z,49.91
2023-05-07T13:39:19.990Z,49.92
2023-05-07T13:41:46.372Z,49.98
2023-05-07T13:44:12.780Z,49.38
2023-05-07T13:46:39.185Z,48.90
2023-05-07T13:49:05.617Z,50.30
2023-05-07T13:51:32.404Z,49.12
2023-05-07T13:53:59.513Z,49.17
2023-05-07T13:56:26.006Z,49.33
2023-05-07T13:58:59.961Z,49.27
2023-05-07T14:01:27.870Z,49.03
2023-05-07T14:03:54.672Z,48.59
2023-05-07T14:06:21.139Z,48.12
2023-05-07T14:08:47.522Z,48.03
2023-05-07T14:11:13.936Z,47.87
2023-05-07T14:13:40.374Z,47.78
2023-05-07T14:16:06.947Z,48.05
2023-05-07T14:18:35.380Z,47.85
2023-05-07T14:21:01.796Z,47.83
2023-05-07T14:23:28.705Z,47.85
2023-05-07T14:25:55.578Z,47.56
2023-05-07T14:28:22.083Z,47.42
2023-05-07T14:30:48.491Z,48.01
2023-05-07T14:33:14.986Z,47.71
2023-05-07T14:35:41.510Z,47.88
2023-05-07T14:38:08.259Z,48.12
2023-05-07T14:40:34.644Z,48.51
2023-05-07T14:43:01.149Z,48.80
2023-05-07T14:45:27.520Z,47.85
2023-05-07T14:47:53.946Z,48.59
2023-05-07T14:50:20.592Z,47.22
2023-05-07T14:52:46.958Z,47.99
2023-05-07T14:55:13.571Z,47.23
2023-05-07T14:57:40.268Z,47.48
2023-05-07T15:00:08.070Z,47.15
2023-05-07T15:02:35.282Z,48.20
2023-05-07T15:05:02.025Z,48.49
2023-05-07T15:07:28.471Z,49.11
2023-05-07T15:09:55.009Z,48.97
2023-05-07T15:12:21.410Z,49.20
2023-05-07T15:14:48.305Z,49.11
2023-05-07T15:17:15.963Z,48.79
2023-05-07T15:19:42.351Z,49.00
2023-05-07T15:22:08.809Z,48.95
2023-05-07T15:24:35.279Z,48.93
2023-05-07T15:27:03.624Z,48.72
2023-05-07T15:29:30.109Z,48.83
2023-05-07T15:31:56.614Z,48.70
2023-05-07T15:34:23.459Z,49.06
2023-05-07T15:36:49.877Z,49.76
2023-05-07T15:39:16.993Z,49.65
2023-05-07T15:41:43.371Z,49.78
2023-05-07T15:44:10.301Z,49.82
2023-05-07T15:46:36.746Z,49.42
2023-05-07T15:49:05.468Z,49.92
2023-05-07T15:51:35.696Z,50.34
2023-05-07T15:54:02.262Z,49.97
2023-05-07T15:56:28.686Z,49.81
2023-05-07T15:58:55.047Z,50.27
2023-05-07T16:01:21.562Z,50.50
2023-05-07T16:03:48.575Z,50.66
2023-05-07T16:06:15.019Z,50.95
2023-05-07T16:08:41.746Z,50.58
2023-05-07T16:11:08.175Z,50.75
2023-05-07T16:13:35.368Z,50.88
2023-05-07T16:16:01.883Z,51.05
2023-05-07T16:18:28.398Z,51.05
2023-05-07T16:20:54.837Z,51.14
2023-05-07T16:23:21.539Z,51.04
2023-05-07T16:25:49.080Z,51.22
2023-05-07T16:28:15.997Z,51.62
2023-05-07T16:30:42.891Z,51.13
2023-05-07T16:33:09.382Z,51.30
2023-05-07T16:35:35.793Z,51.14
2023-05-07T16:38:02.278Z,51.12
2023-05-07T16:40:28.707Z,51.29
2023-05-07T16:42:55.641Z,51.44
2023-05-07T16:45:23.126Z,51.70
2023-05-07T16:47:49.700Z,51.41
2023-05-07T16:50:16.166Z,51.02
2023-05-07T16:52:42.593Z,50.84
2023-05-07T16:55:09.348Z,50.62
2023-05-07T16:57:35.906Z,50.51
2023-05-07T17:00:02.278Z,51.08
2023-05-07T17:02:28.864Z,50.47
2023-05-07T17:04:55.549Z,50.10
2023-05-07T17:07:22.270Z,49.96
2023-05-07T17:09:48.679Z,50.20
2023-05-07T17:12:15.077Z,50.09
2023-05-07T17:14:41.528Z,49.78
2023-05-07T17:17:07.984Z,50.18
2023-05-07T17:19:38.598Z,50.09
2023-05-07T17:22:06.320Z,50.12
2023-05-07T17:24:32.807Z,50.53
2023-05-07T17:26:59.171Z,51.00
2023-05-07T17:29:25.738Z,50.79
2023-05-07T17:31:52.122Z,50.90
2023-05-07T17:34:18.814Z,51.12
2023-05-07T17:36:45.976Z,51.25
2023-05-07T17:39:12.462Z,51.30
2023-05-07T17:41:38.837Z,51.54
2023-05-07T17:44:05.237Z,51.63
2023-05-07T17:46:31.741Z,51.79
2023-05-07T17:48:58.218Z,52.10
2023-05-07T17:51:26.021Z,52.29
2023-05-07T17:53:52.469Z,52.44
2023-05-07T17:56:18.846Z,53.22
2023-05-07T17:58:58.217Z,53.19
2023-05-07T18:01:25.958Z,53.41
2023-05-07T18:03:52.753Z,53.55
2023-05-07T18:06:20.730Z,53.77
2023-05-07T18:08:47.558Z,54.05
2023-05-07T18:11:14.268Z,54.31
2023-05-07T18:13:40.769Z,54.68
2023-05-07T18:16:07.499Z,54.99
2023-05-07T18:18:35.373Z,55.12
2023-05-07T18:21:02.328Z,55.71
2023-05-07T18:23:28.727Z,55.28
2023-05-07T18:25:55.566Z,55.12
2023-05-07T18:28:21.969Z,55.23
2023-05-07T18:30:48.716Z,55.14
2023-05-07T18:33:15.235Z,55.32
2023-05-07T18:35:41.754Z,55.43
2023-05-07T18:38:08.105Z,55.57
2023-05-07T18:40:34.498Z,55.66
2023-05-07T18:43:06.408Z,55.88
2023-05-07T18:45:35.931Z,55.80
2023-05-07T18:48:02.386Z,55.91
2023-05-07T18:50:28.822Z,56.06
2023-05-07T18:52:55.288Z,56.15
2023-05-07T18:55:22.113Z,56.50
2023-05-07T18:57:49.607Z,56.68
2023-05-07T19:00:16.491Z,56.94
2023-05-07T19:02:42.927Z,56.69
2023-05-07T19:05:09.431Z,56.81
2023-05-07T19:07:35.832Z,56.88
2023-05-07T19:10:05.542Z,57.02
2023-05-07T19:12:32.570Z,57.08
2023-05-07T19:14:58.957Z,56.70
2023-05-07T19:17:25.754Z,56.72
2023-05-07T19:19:52.171Z,56.76
2023-05-07T19:22:18.596Z,56.56
2023-05-07T19:24:45.017Z,56.68
2023-05-07T19:27:11.446Z,56.74
2023-05-07T19:29:37.844Z,56.58
2023-05-07T19:32:04.559Z,56.47
2023-05-07T19:34:30.990Z,56.27
2023-05-07T19:36:57.425Z,56.28
2023-05-07T19:39:23.831Z,56.47
2023-05-07T19:41:50.281Z,56.35
2023-05-07T19:44:16.729Z,56.13
2023-05-07T19:46:45.677Z,56.19
2023-05-07T19:49:12.978Z,56.00
2023-05-07T19:51:39.724Z,55.80
2023-05-07T19:54:06.463Z,55.71
2023-05-07T19:56:33.263Z,55.91
2023-05-07T19:58:59.695Z,55.90
2023-05-07T20:01:26.724Z,55.70
2023-05-07T20:03:53.218Z,55.75
2023-05-07T20:06:19.840Z,56.16
2023-05-07T20:08:46.315Z,56.13
2023-05-07T20:11:14.077Z,55.86
2023-05-07T20:13:40.495Z,55.80
2023-05-07T20:16:06.943Z,55.88
2023-05-07T20:18:33.387Z,56.15
2023-05-07T20:21:00.011Z,55.96
2023-05-07T20:23:26.766Z,55.88
2023-05-07T20:25:53.304Z,56.21
2023-05-07T20:28:19.761Z,56.01
2023-05-07T20:30:46.256Z,56.12
2023-05-07T20:33:13.233Z,56.31
2023-05-07T20:35:40.142Z,56.37
2023-05-07T20:38:06.601Z,56.37
2023-05-07T20:40:34.516Z,56.26
2023-05-07T20:43:02.463Z,56.54
2023-05-07T20:45:28.917Z,56.88
2023-05-07T20:47:55.601Z,56.90
2023-05-07T20:50:24.114Z,57.70
2023-05-07T20:52:50.680Z,57.93
2023-05-07T20:55:17.497Z,57.86
2023-05-07T20:57:44.013Z,57.55
2023-05-07T21:00:10.869Z,57.42
2023-05-07T21:02:37.502Z,57.32
2023-05-07T21:05:04.151Z,57.24
2023-05-07T21:07:30.581Z,57.66
2023-05-07T21:09:58.019Z,57.66
2023-05-07T21:12:24.417Z,57.73
2023-05-07T21:14:50.804Z,58.19
2023-05-07T21:17:17.220Z,58.45
2023-05-07T21:19:44.017Z,59.08
2023-05-07T21:22:10.405Z,58.86
2023-05-07T21:24:37.083Z,58.86
2023-05-07T21:27:03.686Z,59.33
2023-05-07T21:29:30.660Z,59.62
2023-05-07T21:31:57.214Z,59.50
2023-05-07T21:34:23.648Z,59.39
2023-05-07T21:36:50.270Z,59.57
2023-05-07T21:39:16.970Z,59.42
2023-05-07T21:41:43.364Z,59.81
2023-05-07T21:44:11.193Z,59.63
2023-05-07T21:46:37.658Z,60.03
2023-05-07T21:49:04.214Z,60.00
2023-05-07T21:51:32.589Z,59.94
2023-05-07T21:53:58.968Z,60.05
2023-05-07T21:56:25.490Z,60.16
2023-05-07T21:58:51.909Z,60.30
2023-05-07T22:01:18.313Z,60.88
2023-05-07T22:03:44.913Z,60.80
2023-05-07T22:06:11.510Z,60.37
